Fortunate — 3FLG6 — position and weather

sailwx.info

Track history (hours):
 
Tides and Currents Weather Stations Pressure Air Temp Water Temp Dewpoint Dewpoint Depression Visibility Wind Speed Wind Dir Waves Ship Positions

Fortunate

Last reported at 2017-Mar-25 12:29 UTC. Time now 2017-Mar-30 10:55 UTC.
Position N 35°02' E 017°56'.

Length 275 m; draft 13.7 m.

Type: Ship (hazmat cat A). MMSI: 356708000.

Date/timePositionNaut miles runAvg speedWind from/ knotsBaromVisibWave heightAir tempDewpointWater temp
2017-Mar-25 12:29N 35°02' E 017°56'5813.6
2017-Mar-25 08:14N 35°17' E 016°48'9713.9
2017-Mar-25 01:17N 35°42' E 014°53'1013.3
2017-Mar-25 00:32N 35°44' E 014°41'9 7.1
2017-Mar-24 23:14N 35°49' E 014°32'0 0.0
2017-Mar-24 22:32N 35°49' E 014°32'0 0.0
2017-Mar-24 21:23N 35°49' E 014°32'0 0.0
2017-Mar-24 20:26N 35°49' E 014°32'0 0.0
2017-Mar-24 17:08N 35°49' E 014°32'0 0.0
2017-Mar-24 16:11N 35°49' E 014°32'0 0.0
2017-Mar-24 15:05N 35°49' E 014°32'0 0.0
2017-Mar-24 14:32N 35°49' E 014°32'0 0.0
2017-Mar-24 13:32N 35°49' E 014°32'0 0.0
2017-Mar-24 12:32N 35°49' E 014°32'0 0.0
2017-Mar-24 11:32N 35°49' E 014°32'0 0.0
2017-Mar-24 08:32N 35°49' E 014°32'0 0.0
2017-Mar-24 04:23N 35°49' E 014°32'0 0.0
2017-Mar-24 01:20N 35°49' E 014°32'0 0.0
2017-Mar-23 23:20N 35°49' E 014°32'0 0.0
2017-Mar-23 19:29N 35°49' E 014°32'0 0.0
2017-Mar-23 18:32N 35°49' E 014°32'0 0.0
2017-Mar-23 17:23N 35°49' E 014°32'0 0.0
2017-Mar-23 16:23N 35°49' E 014°32'0 0.0
2017-Mar-23 15:23N 35°49' E 014°32'0 0.0
2017-Mar-23 14:23N 35°49' E 014°32'0 0.0
2017-Mar-23 13:33N 35°49' E 014°32'3 2.9
2017-Mar-23 12:33N 35°48' E 014°35'5 4.8
2017-Mar-23 11:33N 35°50' E 014°40'2 1.6
2017-Mar-23 10:31N 35°51' E 014°42'0 0.0
2017-Mar-23 09:25N 35°51' E 014°42'0 0.0
2017-Mar-23 08:31N 35°51' E 014°42'0 0.0
2017-Mar-23 07:31N 35°51' E 014°42'0 0.0
2017-Mar-23 06:31N 35°51' E 014°42'0 0.0
2017-Mar-23 05:31N 35°51' E 014°42'0 0.1
2017-Mar-23 04:28N 35°51' E 014°42'0 0.0
2017-Mar-23 03:19N 35°51' E 014°42'0 0.0
2017-Mar-23 02:22N 35°51' E 014°42'0 0.0
2017-Mar-23 01:31N 35°51' E 014°42'0 0.0
2017-Mar-22 22:19N 35°51' E 014°42'0 0.0
2017-Mar-22 20:13N 35°51' E 014°42'0 0.0
2017-Mar-22 19:28N 35°51' E 014°42'0 0.2
2017-Mar-22 18:33N 35°52' E 014°42'8 8.3
2017-Mar-22 17:33N 35°52' E 014°52'  
2017-Mar-17 15:34N 32°54' E 034°49'1111.1
2017-Mar-17 14:34N 32°50' E 035°01'1 1.3
2017-Mar-17 13:33N 32°49' E 035°01'0 0.0
2017-Mar-17 12:33N 32°49' E 035°01'0 0.0
2017-Mar-17 11:33N 32°49' E 035°01'0 0.0
2017-Mar-17 10:33N 32°49' E 035°01'0 0.0
2017-Mar-17 09:33N 32°49' E 035°01'0 0.0
2017-Mar-17 08:33N 32°49' E 035°01'0 0.0
2017-Mar-17 07:33N 32°49' E 035°01'0 0.0
2017-Mar-17 06:33N 32°49' E 035°01'0 0.0
2017-Mar-17 05:33N 32°49' E 035°01'0 0.0
2017-Mar-17 04:33N 32°49' E 035°01'1 1.4
2017-Mar-17 03:33N 32°50' E 035°01'2 2.5
2017-Mar-17 02:33N 32°52' E 034°59'1010.0
2017-Mar-17 01:33N 32°47' E 034°48'1616.2
2017-Mar-17 00:33N 32°31' E 034°43'1616.2
2017-Mar-16 23:33N 32°16' E 034°38'24 0.8
2017-Mar-15 16:29N 31°51' E 034°38'  
Track history (hours):
 
Tides and Currents Weather Stations Pressure Air Temp Water Temp Dewpoint Dewpoint Depression Visibility Wind Speed Wind Dir Waves Ship Positions

Fortunate

Last reported at 2017-Mar-25 12:29 UTC. Time now 2017-Mar-30 10:55 UTC.
Position N 35°02' E 017°56'.

Length 275 m; draft 13.7 m.

Type: Ship (hazmat cat A). MMSI: 356708000.

Date/timePositionNaut miles runAvg speedWind from/ knotsBaromVisibWave heightAir tempDewpointWater temp
2017-Mar-25 12:29N 35°02' E 017°56'5813.6
2017-Mar-25 08:14N 35°17' E 016°48'9713.9
2017-Mar-25 01:17N 35°42' E 014°53'1013.3
2017-Mar-25 00:32N 35°44' E 014°41'9 7.1
2017-Mar-24 23:14N 35°49' E 014°32'0 0.0
2017-Mar-24 22:32N 35°49' E 014°32'0 0.0
2017-Mar-24 21:23N 35°49' E 014°32'0 0.0
2017-Mar-24 20:26N 35°49' E 014°32'0 0.0
2017-Mar-24 17:08N 35°49' E 014°32'0 0.0
2017-Mar-24 16:11N 35°49' E 014°32'0 0.0
2017-Mar-24 15:05N 35°49' E 014°32'0 0.0
2017-Mar-24 14:32N 35°49' E 014°32'0 0.0
2017-Mar-24 13:32N 35°49' E 014°32'0 0.0
2017-Mar-24 12:32N 35°49' E 014°32'0 0.0
2017-Mar-24 11:32N 35°49' E 014°32'0 0.0
2017-Mar-24 08:32N 35°49' E 014°32'0 0.0
2017-Mar-24 04:23N 35°49' E 014°32'0 0.0
2017-Mar-24 01:20N 35°49' E 014°32'0 0.0
2017-Mar-23 23:20N 35°49' E 014°32'0 0.0
2017-Mar-23 19:29N 35°49' E 014°32'0 0.0
2017-Mar-23 18:32N 35°49' E 014°32'0 0.0
2017-Mar-23 17:23N 35°49' E 014°32'0 0.0
2017-Mar-23 16:23N 35°49' E 014°32'0 0.0
2017-Mar-23 15:23N 35°49' E 014°32'0 0.0
2017-Mar-23 14:23N 35°49' E 014°32'0 0.0
2017-Mar-23 13:33N 35°49' E 014°32'3 2.9
2017-Mar-23 12:33N 35°48' E 014°35'5 4.8
2017-Mar-23 11:33N 35°50' E 014°40'2 1.6
2017-Mar-23 10:31N 35°51' E 014°42'0 0.0
2017-Mar-23 09:25N 35°51' E 014°42'0 0.0
2017-Mar-23 08:31N 35°51' E 014°42'0 0.0
2017-Mar-23 07:31N 35°51' E 014°42'0 0.0
2017-Mar-23 06:31N 35°51' E 014°42'0 0.0
2017-Mar-23 05:31N 35°51' E 014°42'0 0.1
2017-Mar-23 04:28N 35°51' E 014°42'0 0.0
2017-Mar-23 03:19N 35°51' E 014°42'0 0.0
2017-Mar-23 02:22N 35°51' E 014°42'0 0.0
2017-Mar-23 01:31N 35°51' E 014°42'0 0.0
2017-Mar-22 22:19N 35°51' E 014°42'0 0.0
2017-Mar-22 20:13N 35°51' E 014°42'0 0.0
2017-Mar-22 19:28N 35°51' E 014°42'0 0.2
2017-Mar-22 18:33N 35°52' E 014°42'8 8.3
2017-Mar-22 17:33N 35°52' E 014°52'  
2017-Mar-17 15:34N 32°54' E 034°49'1111.1
2017-Mar-17 14:34N 32°50' E 035°01'1 1.3
2017-Mar-17 13:33N 32°49' E 035°01'0 0.0
2017-Mar-17 12:33N 32°49' E 035°01'0 0.0
2017-Mar-17 11:33N 32°49' E 035°01'0 0.0
2017-Mar-17 10:33N 32°49' E 035°01'0 0.0
2017-Mar-17 09:33N 32°49' E 035°01'0 0.0
2017-Mar-17 08:33N 32°49' E 035°01'0 0.0
2017-Mar-17 07:33N 32°49' E 035°01'0 0.0
2017-Mar-17 06:33N 32°49' E 035°01'0 0.0
2017-Mar-17 05:33N 32°49' E 035°01'0 0.0
2017-Mar-17 04:33N 32°49' E 035°01'1 1.4
2017-Mar-17 03:33N 32°50' E 035°01'2 2.5
2017-Mar-17 02:33N 32°52' E 034°59'1010.0
2017-Mar-17 01:33N 32°47' E 034°48'1616.2
2017-Mar-17 00:33N 32°31' E 034°43'1616.2
2017-Mar-16 23:33N 32°16' E 034°38'24 0.8
2017-Mar-15 16:29N 31°51' E 034°38'  

Dump ship's entire track history